createdAt,value
2023-08-18T00:00:12.871Z,1.80
2023-08-18T00:02:41.310Z,1.90
2023-08-18T00:05:08.841Z,1.73
2023-08-18T00:07:35.737Z,1.93
2023-08-18T00:10:04.118Z,2.20
2023-08-18T00:12:31.574Z,1.80
2023-08-18T00:14:58.600Z,1.70
2023-08-18T00:17:25.323Z,2.00
2023-08-18T00:19:52.258Z,1.40
2023-08-18T00:22:18.902Z,1.87
2023-08-18T00:24:46.400Z,2.00
2023-08-18T00:27:13.035Z,2.10
2023-08-18T00:29:40.175Z,1.80
2023-08-18T00:32:07.259Z,1.70
2023-08-18T00:34:33.931Z,2.03
2023-08-18T00:37:01.165Z,1.50
2023-08-18T00:39:27.778Z,1.63
2023-08-18T00:41:54.699Z,1.63
2023-08-18T00:44:21.310Z,1.47
2023-08-18T00:46:48.264Z,1.77
2023-08-18T00:49:17.404Z,1.97
2023-08-18T00:51:46.686Z,1.40
2023-08-18T00:54:14.618Z,1.43
2023-08-18T00:56:43.742Z,1.70
2023-08-18T00:59:11.635Z,1.90
2023-08-18T01:01:38.546Z,1.63
2023-08-18T01:04:06.116Z,1.57
2023-08-18T01:06:33.866Z,1.60
2023-08-18T01:09:01.604Z,1.80
2023-08-18T01:11:44.165Z,1.80
2023-08-18T01:14:42.379Z,1.37
2023-08-18T01:17:18.629Z,1.30
2023-08-18T01:19:46.707Z,1.50
2023-08-18T01:22:17.936Z,1.30
2023-08-18T01:24:45.629Z,2.00
2023-08-18T01:27:13.671Z,1.50
2023-08-18T01:29:41.052Z,1.60
2023-08-18T01:32:08.943Z,2.10
2023-08-18T01:34:41.848Z,1.40
2023-08-18T01:37:10.081Z,1.97
2023-08-18T01:39:38.571Z,1.80
2023-08-18T01:42:05.657Z,1.70
2023-08-18T01:44:32.331Z,1.80
2023-08-18T01:46:59.946Z,1.23
2023-08-18T01:49:27.189Z,1.80
2023-08-18T01:51:53.967Z,2.00
2023-08-18T01:54:21.172Z,1.80
2023-08-18T01:56:47.906Z,1.77
2023-08-18T01:59:15.691Z,1.70
2023-08-18T02:01:42.663Z,2.00
2023-08-18T02:04:09.476Z,2.00
2023-08-18T02:06:36.652Z,1.83
2023-08-18T02:09:04.589Z,1.80
2023-08-18T02:11:32.896Z,1.50
2023-08-18T02:13:59.598Z,1.77
2023-08-18T02:16:26.351Z,1.57
2023-08-18T02:18:53.421Z,1.40
2023-08-18T02:21:20.024Z,2.40
2023-08-18T02:23:46.615Z,1.80
2023-08-18T02:26:14.167Z,1.70
2023-08-18T02:28:41.094Z,1.80
2023-08-18T02:31:09.002Z,2.27
2023-08-18T02:33:36.110Z,2.03
2023-08-18T02:36:03.187Z,2.00
2023-08-18T02:38:31.415Z,2.70
2023-08-18T02:40:58.153Z,1.97
2023-08-18T02:43:25.298Z,2.10
2023-08-18T02:46:02.118Z,2.33
2023-08-18T02:48:30.231Z,2.10
2023-08-18T02:51:07.732Z,3.00
2023-08-18T02:53:35.012Z,2.17
2023-08-18T02:56:02.371Z,2.67
2023-08-18T02:58:30.748Z,1.87
2023-08-18T03:01:02.571Z,1.90
2023-08-18T03:03:29.707Z,1.63
2023-08-18T03:06:03.945Z,1.83
2023-08-18T03:08:30.860Z,2.67
2023-08-18T03:10:59.614Z,2.10
2023-08-18T03:13:28.328Z,2.20
2023-08-18T03:15:55.554Z,2.20
2023-08-18T03:18:22.256Z,1.90
2023-08-18T03:20:50.382Z,1.80
2023-08-18T03:23:19.299Z,2.10
2023-08-18T03:25:46.388Z,2.00
2023-08-18T03:28:13.095Z,2.03
2023-08-18T03:30:41.111Z,1.70
2023-08-18T03:33:08.607Z,1.93
2023-08-18T03:35:39.617Z,2.30
2023-08-18T03:38:06.422Z,2.17
2023-08-18T03:40:33.330Z,2.47
2023-08-18T03:43:00.001Z,2.40
2023-08-18T03:45:29.062Z,1.93
2023-08-18T03:47:56.155Z,2.23
2023-08-18T03:50:23.223Z,2.27
2023-08-18T03:52:50.008Z,2.23
2023-08-18T03:55:17.670Z,2.07
2023-08-18T03:57:44.273Z,2.33
2023-08-18T04:00:12.617Z,2.20
2023-08-18T04:02:44.080Z,2.40
2023-08-18T04:05:15.311Z,2.50
2023-08-18T04:07:41.955Z,2.53
2023-08-18T04:10:08.927Z,1.90
2023-08-18T04:12:35.659Z,2.40
2023-08-18T04:15:02.723Z,2.70
2023-08-18T04:17:30.092Z,2.10
2023-08-18T04:19:58.839Z,2.70
2023-08-18T04:22:25.618Z,2.40
2023-08-18T04:24:52.388Z,2.20
2023-08-18T04:27:19.006Z,2.20
2023-08-18T04:29:45.582Z,1.73
2023-08-18T04:32:12.976Z,2.30
2023-08-18T04:34:40.938Z,1.83
2023-08-18T04:37:07.661Z,2.90
2023-08-18T04:39:34.513Z,2.30
2023-08-18T04:42:01.584Z,2.30
2023-08-18T04:44:31.402Z,3.47
2023-08-18T04:46:58.142Z,2.40
2023-08-18T04:49:25.232Z,2.67
2023-08-18T04:51:51.840Z,2.50
2023-08-18T04:54:19.667Z,2.37
2023-08-18T04:56:47.566Z,2.73
2023-08-18T04:59:15.681Z,2.47
2023-08-18T05:01:43.813Z,2.43
2023-08-18T05:04:10.454Z,1.90
2023-08-18T05:06:37.228Z,2.23
2023-08-18T05:09:06.471Z,3.00
2023-08-18T05:11:33.305Z,2.50
2023-08-18T05:13:59.908Z,2.80
2023-08-18T05:16:26.615Z,2.43
2023-08-18T05:18:56.456Z,3.07
2023-08-18T05:21:23.844Z,3.00
2023-08-18T05:23:50.983Z,2.70
2023-08-18T05:26:18.042Z,3.00
2023-08-18T05:28:45.496Z,3.03
2023-08-18T05:31:12.256Z,2.70
2023-08-18T05:33:38.968Z,2.67
2023-08-18T05:36:06.846Z,3.07
2023-08-18T05:38:33.942Z,2.20
2023-08-18T05:41:11.396Z,2.87
2023-08-18T05:43:40.142Z,3.13
2023-08-18T05:46:07.688Z,3.50
2023-08-18T05:48:34.478Z,3.20
2023-08-18T05:51:01.884Z,3.13
2023-08-18T05:53:29.156Z,2.73
2023-08-18T05:55:55.752Z,3.10
2023-08-18T05:58:22.435Z,2.87
2023-08-18T06:00:50.887Z,3.00
2023-08-18T06:03:21.060Z,2.87
2023-08-18T06:05:51.332Z,3.47
2023-08-18T06:08:18.112Z,3.40
2023-08-18T06:10:45.133Z,3.10
2023-08-18T06:13:12.261Z,3.20
2023-08-18T06:15:38.881Z,3.00
2023-08-18T06:18:05.962Z,3.50
2023-08-18T06:20:32.639Z,3.33
2023-08-18T06:22:59.650Z,2.70
2023-08-18T06:25:26.301Z,2.77
2023-08-18T06:27:53.050Z,2.83
2023-08-18T06:30:20.086Z,2.90
2023-08-18T06:32:47.170Z,2.33
2023-08-18T06:35:14.412Z,3.30
2023-08-18T06:37:41.069Z,2.53
2023-08-18T06:40:08.805Z,2.70
2023-08-18T06:42:35.761Z,2.40
2023-08-18T06:45:04.666Z,2.17
2023-08-18T06:47:32.502Z,2.90
2023-08-18T06:50:01.080Z,2.93
2023-08-18T06:52:29.685Z,2.63
2023-08-18T06:54:56.420Z,3.17
2023-08-18T06:57:23.879Z,2.90
2023-08-18T06:59:51.019Z,2.43
2023-08-18T07:02:18.156Z,3.27
2023-08-18T07:04:44.948Z,2.80
2023-08-18T07:07:11.979Z,3.00
2023-08-18T07:09:38.838Z,2.60
2023-08-18T07:12:05.894Z,2.50
2023-08-18T07:14:32.565Z,3.30
2023-08-18T07:17:00.831Z,2.10
2023-08-18T07:19:27.527Z,2.30
2023-08-18T07:21:54.218Z,2.70
2023-08-18T07:24:20.813Z,2.23
2023-08-18T07:26:47.764Z,2.80
2023-08-18T07:29:14.326Z,2.30
2023-08-18T07:31:41.001Z,2.20
2023-08-18T07:34:07.975Z,2.30
2023-08-18T07:36:34.891Z,2.20
2023-08-18T07:39:01.834Z,2.33
2023-08-18T07:41:30.070Z,2.10
2023-08-18T07:43:56.775Z,1.73
2023-08-18T07:46:24.324Z,2.77
2023-08-18T07:48:51.065Z,2.17
2023-08-18T07:51:18.689Z,1.87
2023-08-18T07:53:45.829Z,2.20
2023-08-18T07:56:13.051Z,2.20
2023-08-18T07:58:40.274Z,2.30
2023-08-18T08:01:07.192Z,2.70
2023-08-18T08:03:34.021Z,2.10
2023-08-18T08:06:00.767Z,2.20
2023-08-18T08:08:27.455Z,1.90
2023-08-18T08:10:54.533Z,2.00
2023-08-18T08:13:21.906Z,2.30
2023-08-18T08:15:49.060Z,1.80
2023-08-18T08:18:18.273Z,2.40
2023-08-18T08:20:45.660Z,2.10
2023-08-18T08:23:12.346Z,2.13
2023-08-18T08:25:41.366Z,2.40
2023-08-18T08:28:08.031Z,1.90
2023-08-18T08:30:36.597Z,1.80
2023-08-18T08:33:07.715Z,1.80
2023-08-18T08:35:35.945Z,1.87
2023-08-18T08:38:03.146Z,2.20
2023-08-18T08:40:29.850Z,2.30
2023-08-18T08:45:28.702Z,2.40
2023-08-18T08:47:58.071Z,2.10
2023-08-18T08:50:31.296Z,1.90
2023-08-18T08:53:01.607Z,1.70
2023-08-18T08:55:33.487Z,2.20
2023-08-18T08:58:00.941Z,1.87
2023-08-18T09:00:28.566Z,2.00
2023-08-18T09:03:01.465Z,1.80
2023-08-18T09:05:30.837Z,2.37
2023-08-18T09:07:57.957Z,1.80
2023-08-18T09:10:26.911Z,2.00
2023-08-18T09:12:54.112Z,2.27
2023-08-18T09:15:23.822Z,2.33
2023-08-18T09:17:51.844Z,2.60
2023-08-18T09:20:19.178Z,3.13
2023-08-18T09:22:46.332Z,3.60
2023-08-18T09:25:14.625Z,2.60
2023-08-18T09:27:41.365Z,3.37
2023-08-18T09:30:08.536Z,2.37
2023-08-18T09:32:39.279Z,3.37
2023-08-18T09:35:11.898Z,2.73
2023-08-18T09:37:39.742Z,3.70
2023-08-18T09:40:07.168Z,3.13
2023-08-18T09:42:34.337Z,3.23
2023-08-18T09:45:01.652Z,4.27
2023-08-18T09:47:30.941Z,4.00
2023-08-18T09:50:00.906Z,3.60
2023-08-18T09:52:30.974Z,3.20
2023-08-18T09:55:11.350Z,3.40
2023-08-18T09:57:55.449Z,4.10
2023-08-18T10:00:23.813Z,2.90
2023-08-18T10:02:53.974Z,3.40
2023-08-18T10:05:23.254Z,3.87
2023-08-18T10:07:52.561Z,3.50
2023-08-18T10:10:19.420Z,3.80
2023-08-18T10:12:46.367Z,3.10
2023-08-18T10:15:14.995Z,3.50
2023-08-18T10:17:43.031Z,4.60
2023-08-18T10:20:13.225Z,3.47
2023-08-18T10:22:42.986Z,3.33
2023-08-18T10:25:10.580Z,3.50
2023-08-18T10:27:40.272Z,3.50
2023-08-18T10:30:10.331Z,3.33
2023-08-18T10:32:37.966Z,3.90
2023-08-18T10:35:24.074Z,3.10
2023-08-18T10:38:05.956Z,3.22
2023-08-18T10:40:37.500Z,3.83
2023-08-18T10:43:07.095Z,3.10
2023-08-18T10:45:34.495Z,3.92
2023-08-18T10:48:07.272Z,4.25
2023-08-18T10:50:40.828Z,3.42
2023-08-18T10:53:09.213Z,3.75
2023-08-18T10:55:35.963Z,4.57
2023-08-18T10:58:03.684Z,4.40
2023-08-18T11:00:34.969Z,4.13
2023-08-18T11:03:02.249Z,4.60
2023-08-18T11:05:35.206Z,5.03
2023-08-18T11:08:04.960Z,4.70
2023-08-18T11:10:33.536Z,4.20
2023-08-18T11:13:00.785Z,4.25
2023-08-18T11:15:27.708Z,5.00
2023-08-18T11:17:54.881Z,4.00
2023-08-18T11:20:22.756Z,5.37
2023-08-18T11:22:55.056Z,4.20
2023-08-18T11:25:24.196Z,4.83
2023-08-18T11:27:53.899Z,4.30
2023-08-18T11:30:22.126Z,4.80
2023-08-18T11:32:50.483Z,5.13
2023-08-18T11:35:19.929Z,5.10
2023-08-18T11:37:49.114Z,4.90
2023-08-18T11:40:18.919Z,5.03
2023-08-18T11:42:47.752Z,5.00
2023-08-18T11:45:20.585Z,5.10
2023-08-18T11:47:49.522Z,4.70
2023-08-18T11:50:22.462Z,4.97
2023-08-18T11:52:53.525Z,5.27
2023-08-18T11:55:51.428Z,4.23
2023-08-18T11:58:22.910Z,4.70
2023-08-18T12:00:49.963Z,5.30
2023-08-18T12:03:23.347Z,4.53
2023-08-18T12:05:51.891Z,4.47
2023-08-18T12:08:18.674Z,4.32
2023-08-18T12:10:49.157Z,4.03
2023-08-18T12:16:04.810Z,5.40
2023-08-18T12:18:31.432Z,4.60
2023-08-18T12:20:58.042Z,4.47
2023-08-18T12:23:24.661Z,4.40
2023-08-18T12:25:52.051Z,4.37
2023-08-18T12:28:19.155Z,5.28
2023-08-18T12:30:45.812Z,5.03
2023-08-18T12:33:13.380Z,4.57
2023-08-18T12:35:39.956Z,4.97
2023-08-18T12:38:07.356Z,4.27
2023-08-18T12:40:33.953Z,5.13
2023-08-18T12:43:03.491Z,5.07
2023-08-18T12:45:30.306Z,5.27
2023-08-18T12:47:57.434Z,4.50
2023-08-18T12:50:24.499Z,4.70
2023-08-18T12:52:51.389Z,4.50
2023-08-18T12:55:18.012Z,4.60
2023-08-18T12:57:46.212Z,4.57
2023-08-18T13:00:13.408Z,4.40
2023-08-18T13:02:40.092Z,4.50
2023-08-18T13:05:07.565Z,4.87
2023-08-18T13:07:34.141Z,5.13
2023-08-18T13:10:01.870Z,4.80
2023-08-18T13:12:28.523Z,4.80
2023-08-18T13:14:55.138Z,4.23
2023-08-18T13:17:22.288Z,4.97
2023-08-18T13:19:50.164Z,5.33
2023-08-18T13:22:23.810Z,4.23
2023-08-18T13:24:53.741Z,4.70
2023-08-18T13:27:24.641Z,4.50
2023-08-18T13:29:51.935Z,5.10
2023-08-18T13:32:18.791Z,4.53
2023-08-18T13:34:46.430Z,4.70
2023-08-18T13:37:13.420Z,5.20
2023-08-18T13:39:40.020Z,4.93
2023-08-18T13:42:06.792Z,5.17
2023-08-18T13:44:33.379Z,5.33
2023-08-18T13:46:59.940Z,5.20
2023-08-18T13:49:28.300Z,4.80
2023-08-18T13:51:55.901Z,5.10
2023-08-18T13:54:22.766Z,4.80
2023-08-18T13:56:49.384Z,5.83
2023-08-18T13:59:16.829Z,4.63
2023-08-18T14:01:43.898Z,5.13
2023-08-18T14:04:10.568Z,5.87
2023-08-18T14:06:37.607Z,4.97
2023-08-18T14:09:05.171Z,5.20
2023-08-18T14:11:33.534Z,5.63
2023-08-18T14:14:00.304Z,5.10
2023-08-18T14:16:28.516Z,5.60
2023-08-18T14:18:58.287Z,5.00
2023-08-18T14:21:28.348Z,5.07
2023-08-18T14:23:57.904Z,5.03
2023-08-18T14:26:25.158Z,4.90
2023-08-18T14:28:51.822Z,5.37
2023-08-18T14:31:19.609Z,5.87
2023-08-18T14:33:47.673Z,5.30
2023-08-18T14:36:16.349Z,5.07
2023-08-18T14:38:44.121Z,5.50
2023-08-18T14:41:11.248Z,5.40
2023-08-18T14:43:38.308Z,4.60
2023-08-18T14:46:09.007Z,5.60
2023-08-18T14:48:36.072Z,4.97
2023-08-18T14:51:06.492Z,5.10
2023-08-18T14:53:33.381Z,4.80
2023-08-18T14:56:00.882Z,4.80
2023-08-18T14:58:28.369Z,5.60
2023-08-18T15:00:55.598Z,4.87
2023-08-18T15:03:22.878Z,4.90
2023-08-18T15:05:50.746Z,5.60
2023-08-18T15:08:17.612Z,4.70
2023-08-18T15:10:44.211Z,5.73
2023-08-18T15:13:10.820Z,5.70
2023-08-18T15:15:38.215Z,4.97
2023-08-18T15:18:05.757Z,5.13
2023-08-18T15:20:32.547Z,4.80
2023-08-18T15:22:59.771Z,5.17
2023-08-18T15:25:26.686Z,4.93
2023-08-18T15:27:53.294Z,5.40
2023-08-18T15:30:20.007Z,5.07
2023-08-18T15:32:46.583Z,5.27
2023-08-18T15:35:13.467Z,5.27
2023-08-18T15:37:40.640Z,4.70
2023-08-18T15:40:07.969Z,5.67
2023-08-18T15:42:34.852Z,4.97
2023-08-18T15:45:01.991Z,4.37
2023-08-18T15:47:29.059Z,4.93
2023-08-18T15:49:55.963Z,4.60
2023-08-18T15:52:22.643Z,5.27
2023-08-18T15:54:50.783Z,4.70
2023-08-18T15:57:17.530Z,5.27
2023-08-18T15:59:44.140Z,4.47
2023-08-18T16:02:10.734Z,5.17
2023-08-18T16:04:39.969Z,5.53
2023-08-18T16:07:07.095Z,5.40
2023-08-18T16:09:34.108Z,5.27
2023-08-18T16:12:00.977Z,5.67
2023-08-18T16:15:09.075Z,5.23
2023-08-18T16:17:15.069Z,4.17
2023-08-18T16:19:42.313Z,4.87
2023-08-18T16:22:09.209Z,4.60
2023-08-18T16:24:37.280Z,4.90
2023-08-18T16:27:04.687Z,5.13
2023-08-18T16:29:32.645Z,5.73
2023-08-18T16:32:00.242Z,5.67
2023-08-18T16:34:28.128Z,5.70
2023-08-18T16:36:56.664Z,4.97
2023-08-18T16:39:23.478Z,5.70
2023-08-18T16:41:50.147Z,5.43
2023-08-18T16:44:16.857Z,5.87
2023-08-18T16:46:44.078Z,5.03
2023-08-18T16:49:11.363Z,5.80
2023-08-18T16:51:38.019Z,5.70
2023-08-18T16:54:06.821Z,5.33
2023-08-18T16:56:33.430Z,5.83
2023-08-18T16:59:00.047Z,6.27
2023-08-18T17:01:26.729Z,5.63
2023-08-18T17:03:53.895Z,5.97
2023-08-18T17:06:20.508Z,5.40
2023-08-18T17:08:47.066Z,5.90
2023-08-18T17:11:13.646Z,6.27
2023-08-18T17:13:40.300Z,5.83
2023-08-18T17:16:06.902Z,6.30
2023-08-18T17:18:33.533Z,5.90
2023-08-18T17:21:00.112Z,6.30
2023-08-18T17:23:26.796Z,6.00
2023-08-18T17:25:54.505Z,6.70
2023-08-18T17:28:21.289Z,6.20
2023-08-18T17:30:48.315Z,6.03
2023-08-18T17:33:15.397Z,6.60
2023-08-18T17:35:45.508Z,6.10
2023-08-18T17:38:12.471Z,6.13
2023-08-18T17:40:40.098Z,6.20
2023-08-18T17:43:06.801Z,6.90
2023-08-18T17:45:35.929Z,6.23
2023-08-18T17:48:02.705Z,6.00
2023-08-18T17:50:29.377Z,6.37
2023-08-18T17:52:57.726Z,6.33
2023-08-18T17:55:24.956Z,6.20
2023-08-18T17:57:51.769Z,6.10
2023-08-18T18:00:18.766Z,6.60
2023-08-18T18:02:45.397Z,6.30
2023-08-18T18:05:12.530Z,6.13
2023-08-18T18:07:39.340Z,8.10
2023-08-18T18:10:06.945Z,7.37
2023-08-18T18:12:33.839Z,6.90
2023-08-18T18:15:01.002Z,6.70
2023-08-18T18:17:28.645Z,6.10
2023-08-18T18:19:55.972Z,6.60
2023-08-18T18:22:24.176Z,6.77
2023-08-18T18:24:50.933Z,6.50
2023-08-18T18:27:17.494Z,6.17
2023-08-18T18:29:44.412Z,6.90
2023-08-18T18:32:11.359Z,6.80
2023-08-18T18:34:38.336Z,7.77
2023-08-18T18:37:06.862Z,7.27
2023-08-18T18:39:34.668Z,7.80
2023-08-18T18:42:01.911Z,8.60
2023-08-18T18:44:29.016Z,6.10
2023-08-18T18:46:55.588Z,7.53
2023-08-18T18:49:22.692Z,6.97
2023-08-18T18:51:49.815Z,6.47
2023-08-18T18:54:17.090Z,7.60
2023-08-18T18:56:44.624Z,7.70
2023-08-18T18:59:11.440Z,6.80
2023-08-18T19:01:38.730Z,7.30
2023-08-18T19:04:06.204Z,6.60
2023-08-18T19:06:32.848Z,6.83
2023-08-18T19:08:59.426Z,6.50
2023-08-18T19:11:26.075Z,14.50
2023-08-18T19:13:52.681Z,10.23
2023-08-18T19:16:22.220Z,9.07
2023-08-18T19:18:48.909Z,7.73
2023-08-18T19:21:15.498Z,6.80
2023-08-18T19:23:42.076Z,6.90
2023-08-18T19:26:08.806Z,7.60
2023-08-18T19:28:35.713Z,6.70
2023-08-18T19:31:07.467Z,6.80
2023-08-18T19:33:34.481Z,7.03
2023-08-18T19:36:01.489Z,5.83
2023-08-18T19:38:28.264Z,7.77
2023-08-18T19:40:55.417Z,11.13
2023-08-18T19:43:22.185Z,7.27
2023-08-18T19:45:55.898Z,7.47
2023-08-18T19:48:22.501Z,6.73
2023-08-18T19:50:49.106Z,6.20
2023-08-18T19:53:15.769Z,6.30
2023-08-18T19:55:42.365Z,6.73
2023-08-18T19:58:09.124Z,6.87
2023-08-18T20:00:35.697Z,7.27
2023-08-18T20:03:04.120Z,6.53
2023-08-18T20:05:30.853Z,6.77
2023-08-18T20:07:58.440Z,7.17
2023-08-18T20:10:25.462Z,6.33
2023-08-18T20:12:52.378Z,8.30
2023-08-18T20:15:20.919Z,6.73
2023-08-18T20:17:47.896Z,7.80
2023-08-18T20:20:14.866Z,8.33
2023-08-18T20:22:42.612Z,8.90
2023-08-18T20:25:10.681Z,7.03
2023-08-18T20:27:38.418Z,7.10
2023-08-18T20:30:06.092Z,7.33
2023-08-18T20:32:38.582Z,8.37
2023-08-18T20:35:06.153Z,7.57
2023-08-18T20:37:32.988Z,8.90
2023-08-18T20:39:59.782Z,9.50
2023-08-18T20:42:26.601Z,7.80
2023-08-18T20:44:53.541Z,8.03
2023-08-18T20:47:20.250Z,7.70
2023-08-18T20:49:46.817Z,7.80
2023-08-18T20:52:13.985Z,7.93
2023-08-18T20:54:40.629Z,8.60
2023-08-18T20:57:07.298Z,7.67
2023-08-18T20:59:34.148Z,7.60
2023-08-18T21:02:01.049Z,8.30
2023-08-18T21:04:28.298Z,8.40
2023-08-18T21:06:55.341Z,8.10
2023-08-18T21:09:24.248Z,8.40
2023-08-18T21:11:51.794Z,8.77
2023-08-18T21:14:18.535Z,8.77
2023-08-18T21:16:45.531Z,8.30
2023-08-18T21:19:12.279Z,8.20
2023-08-18T21:21:39.050Z,8.67
2023-08-18T21:24:07.249Z,8.77
2023-08-18T21:26:34.390Z,8.27
2023-08-18T21:29:01.081Z,8.53
2023-08-18T21:31:27.749Z,9.90
2023-08-18T21:33:55.004Z,9.67
2023-08-18T21:36:24.952Z,8.83
2023-08-18T21:38:52.894Z,9.60
2023-08-18T21:41:19.807Z,9.70
2023-08-18T21:43:46.711Z,9.13
2023-08-18T21:46:13.503Z,9.43
2023-08-18T21:48:41.710Z,9.20
2023-08-18T21:51:09.204Z,9.07
2023-08-18T21:53:36.273Z,10.30
2023-08-18T21:56:03.738Z,9.27
2023-08-18T21:58:31.197Z,8.40
2023-08-18T22:00:58.625Z,10.60
2023-08-18T22:03:25.420Z,10.40
2023-08-18T22:05:53.174Z,9.03
2023-08-18T22:08:20.076Z,10.00
2023-08-18T22:10:46.813Z,9.43
2023-08-18T22:13:13.381Z,9.97
2023-08-18T22:15:40.000Z,9.53
2023-08-18T22:18:07.716Z,10.17
2023-08-18T22:20:34.536Z,8.90
2023-08-18T22:23:01.546Z,10.60
2023-08-18T22:25:28.144Z,8.97
2023-08-18T22:27:55.665Z,9.80
2023-08-18T22:30:22.377Z,8.93
2023-08-18T22:32:49.782Z,8.80
2023-08-18T22:35:16.555Z,9.80
2023-08-18T22:37:44.147Z,9.10
2023-08-18T22:40:11.629Z,8.40
2023-08-18T22:42:39.541Z,9.80
2023-08-18T22:45:11.680Z,9.60
2023-08-18T22:47:40.080Z,12.20
2023-08-18T22:50:07.840Z,11.30
2023-08-18T22:52:36.123Z,9.07
2023-08-18T22:55:04.442Z,9.80
2023-08-18T22:57:31.559Z,9.40
2023-08-18T22:59:59.275Z,8.97
2023-08-18T23:02:26.892Z,9.47
2023-08-18T23:04:53.735Z,9.47
2023-08-18T23:07:20.356Z,10.33
2023-08-18T23:09:47.118Z,9.60
2023-08-18T23:12:15.569Z,11.27
2023-08-18T23:14:42.948Z,10.17
2023-08-18T23:17:09.640Z,9.97
2023-08-18T23:19:36.679Z,9.90
2023-08-18T23:22:05.015Z,10.43
2023-08-18T23:24:32.549Z,10.43
2023-08-18T23:26:59.284Z,10.10
2023-08-18T23:29:26.456Z,9.53
2023-08-18T23:31:53.177Z,10.10
2023-08-18T23:34:20.784Z,10.23
2023-08-18T23:36:47.986Z,10.20
2023-08-18T23:39:14.640Z,9.97
2023-08-18T23:41:41.290Z,10.33
2023-08-18T23:44:08.045Z,9.63
2023-08-18T23:46:34.782Z,13.77
2023-08-18T23:49:01.427Z,11.70
2023-08-18T23:51:28.089Z,10.27
2023-08-18T23:53:55.448Z,10.33
2023-08-18T23:56:22.262Z,10.13
2023-08-18T23:58:48.897Z,10.90
